createdAt,value
2023-01-17T00:02:25.198Z,2.09
2023-01-17T00:05:45.827Z,2.14
2023-01-17T00:09:05.828Z,2.33
2023-01-17T00:12:08.086Z,2.24
2023-01-17T00:15:10.578Z,2.29
2023-01-17T00:18:12.294Z,2.29
2023-01-17T00:21:32.923Z,2.35
2023-01-17T00:24:53.268Z,2.45
2023-01-17T00:27:54.917Z,2.49
2023-01-17T00:30:56.966Z,2.53
2023-01-17T00:33:58.656Z,2.50
2023-01-17T00:37:00.301Z,2.53
2023-01-17T00:40:02.264Z,2.55
2023-01-17T00:43:23.827Z,2.60
2023-01-17T00:46:44.250Z,2.64
2023-01-17T00:50:04.929Z,2.69
2023-01-17T00:53:25.226Z,2.71
2023-01-17T00:56:45.652Z,2.75
2023-01-17T01:00:06.457Z,2.77
2023-01-17T01:03:28.903Z,2.80
2023-01-17T01:06:49.176Z,2.75
2023-01-17T01:10:09.231Z,2.82
2023-01-17T01:13:29.482Z,2.84
2023-01-17T01:16:49.859Z,2.78
2023-01-17T01:20:10.193Z,2.83
2023-01-17T01:23:30.393Z,2.89
2023-01-17T01:26:50.670Z,2.90
2023-01-17T01:30:10.923Z,2.89
2023-01-17T01:33:21.130Z,2.90
2023-01-17T01:36:22.976Z,2.92
2023-01-17T01:39:24.742Z,2.88
2023-01-17T01:42:26.428Z,2.93
2023-01-17T01:45:30.402Z,2.94
2023-01-17T01:48:37.318Z,2.99
2023-01-17T01:51:44.574Z,3.04
2023-01-17T01:54:58.646Z,3.09
2023-01-17T01:58:04.681Z,3.08
2023-01-17T02:01:08.684Z,3.20
2023-01-17T02:04:11.047Z,3.28
2023-01-17T02:07:20.347Z,3.25
2023-01-17T02:10:22.258Z,3.46
2023-01-17T02:13:24.112Z,3.49
2023-01-17T02:16:37.814Z,3.58
2023-01-17T02:20:17.295Z,3.74
2023-01-17T02:23:37.695Z,3.56
2023-01-17T02:26:52.651Z,3.64
2023-01-17T02:30:12.772Z,3.79
2023-01-17T02:33:29.333Z,3.75
2023-01-17T02:36:42.137Z,3.88
2023-01-17T02:39:55.363Z,3.79
2023-01-17T02:43:02.854Z,3.58
2023-01-17T02:46:04.787Z,3.87
2023-01-17T02:49:07.575Z,3.64
2023-01-17T02:52:44.650Z,3.74
2023-01-17T02:55:46.328Z,3.78
2023-01-17T02:59:01.863Z,3.57
2023-01-17T03:02:14.084Z,3.67
2023-01-17T03:05:23.240Z,4.07
2023-01-17T03:08:26.001Z,3.93
2023-01-17T03:11:27.869Z,3.74
2023-01-17T03:14:31.325Z,3.79
2023-01-17T03:17:33.324Z,3.87
2023-01-17T03:20:35.063Z,3.98
2023-01-17T03:23:36.967Z,4.07
2023-01-17T03:26:38.730Z,3.95
2023-01-17T03:29:40.494Z,3.96
2023-01-17T03:32:42.273Z,3.79
2023-01-17T03:35:47.826Z,3.57
2023-01-17T03:38:50.524Z,3.46
2023-01-17T03:41:52.192Z,3.38
2023-01-17T03:44:53.924Z,3.32
2023-01-17T03:47:57.750Z,3.33
2023-01-17T03:50:59.925Z,3.37
2023-01-17T03:54:01.682Z,3.29
2023-01-17T03:57:03.396Z,3.27
2023-01-17T04:00:05.808Z,3.27
2023-01-17T04:03:07.727Z,3.26
2023-01-17T04:06:09.386Z,3.19
2023-01-17T04:09:11.190Z,3.15
2023-01-17T04:12:12.993Z,3.11
2023-01-17T04:15:14.809Z,3.18
2023-01-17T04:18:21.090Z,3.13
2023-01-17T04:21:23.382Z,3.16
2023-01-17T04:24:25.106Z,3.20
2023-01-17T04:27:26.891Z,3.17
2023-01-17T04:30:29.414Z,3.21
2023-01-17T04:33:31.285Z,3.33
2023-01-17T04:36:33.017Z,3.28
2023-01-17T04:39:34.915Z,3.38
2023-01-17T04:42:36.921Z,3.29
2023-01-17T04:45:38.898Z,3.32
2023-01-17T04:48:40.624Z,3.37
2023-01-17T04:51:42.288Z,3.29
2023-01-17T04:54:44.413Z,3.29
2023-01-17T04:57:47.810Z,3.36
2023-01-17T05:00:51.119Z,3.29
2023-01-17T05:03:52.857Z,3.37
2023-01-17T05:06:55.088Z,3.45
2023-01-17T05:09:56.776Z,3.31
2023-01-17T05:12:59.812Z,3.28
2023-01-17T05:16:01.708Z,3.32
2023-01-17T05:19:03.415Z,3.31
2023-01-17T05:22:15.252Z,3.26
2023-01-17T05:25:17.120Z,3.30
2023-01-17T05:28:18.782Z,3.29
2023-01-17T05:31:20.684Z,3.29
2023-01-17T05:34:22.451Z,3.14
2023-01-17T05:37:25.179Z,2.98
2023-01-17T05:40:30.864Z,2.91
2023-01-17T05:43:32.611Z,2.77
2023-01-17T05:46:34.380Z,2.69
2023-01-17T05:49:36.200Z,2.61
2023-01-17T05:52:37.955Z,2.59
2023-01-17T05:55:40.842Z,2.55
2023-01-17T05:58:42.592Z,2.49
2023-01-17T06:01:44.342Z,2.46
2023-01-17T06:04:46.023Z,2.43
2023-01-17T06:07:48.374Z,2.46
2023-01-17T06:10:50.080Z,2.48
2023-01-17T06:13:52.021Z,2.56
2023-01-17T06:16:54.206Z,2.61
2023-01-17T06:19:57.001Z,2.65
2023-01-17T06:23:01.479Z,2.63
2023-01-17T06:26:04.589Z,2.85
2023-01-17T06:29:06.331Z,2.70
2023-01-17T06:32:09.213Z,2.75
2023-01-17T06:35:10.900Z,2.83
2023-01-17T06:38:12.665Z,2.92
2023-01-17T06:41:14.413Z,3.02
2023-01-17T06:44:17.100Z,2.96
2023-01-17T06:47:18.843Z,2.89
2023-01-17T06:50:20.596Z,3.00
2023-01-17T06:53:22.405Z,2.99
2023-01-17T06:56:24.306Z,3.03
2023-01-17T06:59:28.130Z,3.07
2023-01-17T07:02:29.856Z,3.08
2023-01-17T07:05:31.605Z,3.18
2023-01-17T07:08:33.337Z,3.21
2023-01-17T07:11:35.081Z,3.27
2023-01-17T07:14:36.774Z,3.34
2023-01-17T07:17:39.020Z,3.42
2023-01-17T07:20:43.953Z,3.49
2023-01-17T07:23:45.770Z,3.48
2023-01-17T07:26:51.876Z,3.68
2023-01-17T07:29:54.363Z,3.67
2023-01-17T07:32:56.572Z,3.51
2023-01-17T07:35:58.308Z,3.66
2023-01-17T07:39:00.005Z,3.80
2023-01-17T07:42:02.833Z,3.67
2023-01-17T07:45:05.080Z,3.73
2023-01-17T07:48:06.971Z,3.74
2023-01-17T07:51:09.699Z,3.62
2023-01-17T07:54:11.848Z,3.81
2023-01-17T07:57:13.637Z,3.91
2023-01-17T08:00:15.878Z,3.92
2023-01-17T08:03:18.257Z,4.11
2023-01-17T08:06:23.217Z,4.06
2023-01-17T08:09:25.029Z,4.17
2023-01-17T08:12:27.166Z,4.10
2023-01-17T08:15:28.940Z,4.22
2023-01-17T08:18:30.938Z,4.30
2023-01-17T08:21:32.655Z,4.23
2023-01-17T08:24:34.692Z,4.21
2023-01-17T08:27:36.855Z,4.15
2023-01-17T08:30:38.830Z,4.28
2023-01-17T08:33:40.612Z,4.35
2023-01-17T08:36:47.913Z,4.17
2023-01-17T08:39:51.279Z,4.15
2023-01-17T08:42:56.106Z,4.24
2023-01-17T08:45:57.959Z,4.48
2023-01-17T08:49:02.727Z,4.52
2023-01-17T08:52:05.363Z,4.36
2023-01-17T08:55:10.150Z,4.54
2023-01-17T08:58:11.947Z,4.50
2023-01-17T09:01:13.829Z,4.42
2023-01-17T09:04:15.757Z,4.30
2023-01-17T09:07:20.517Z,4.31
2023-01-17T09:10:23.618Z,4.42
2023-01-17T09:13:25.362Z,4.34
2023-01-17T09:16:27.116Z,4.30
2023-01-17T09:19:29.566Z,4.28
2023-01-17T09:22:31.297Z,4.26
2023-01-17T09:25:33.048Z,4.26
2023-01-17T09:28:41.074Z,4.20
2023-01-17T09:31:42.864Z,4.31
2023-01-17T09:34:44.633Z,4.33
2023-01-17T09:37:50.415Z,4.34
2023-01-17T09:40:52.164Z,4.46
2023-01-17T09:44:16.915Z,4.63
2023-01-17T09:47:33.563Z,5.01
2023-01-17T09:50:52.979Z,4.76
2023-01-17T09:53:55.400Z,4.67
2023-01-17T09:57:08.903Z,4.68
2023-01-17T10:00:30.309Z,4.71
2023-01-17T10:03:51.142Z,5.07
2023-01-17T10:07:02.094Z,4.97
2023-01-17T10:10:29.269Z,5.24
2023-01-17T10:13:50.107Z,5.36
2023-01-17T10:17:16.410Z,5.38
2023-01-17T10:20:45.259Z,5.60
2023-01-17T10:24:16.384Z,5.52
2023-01-17T10:27:40.256Z,5.54
2023-01-17T10:30:48.987Z,5.77
2023-01-17T10:33:56.111Z,5.48
2023-01-17T10:37:15.865Z,5.57
2023-01-17T10:40:41.215Z,5.69
2023-01-17T10:43:52.723Z,5.88
2023-01-17T10:47:18.313Z,5.83
2023-01-17T10:50:22.972Z,5.85
2023-01-17T10:53:36.464Z,5.84
2023-01-17T10:56:40.479Z,6.03
2023-01-17T10:59:44.152Z,6.17
2023-01-17T11:02:50.604Z,6.33
2023-01-17T11:06:16.148Z,6.50
2023-01-17T11:09:20.774Z,6.35
2023-01-17T11:12:33.317Z,6.58
2023-01-17T11:15:39.825Z,6.84
2023-01-17T11:18:42.854Z,6.68
2023-01-17T11:21:58.579Z,6.45
2023-01-17T11:25:01.215Z,6.56
2023-01-17T11:28:05.324Z,6.73
2023-01-17T11:31:27.404Z,6.83
2023-01-17T11:34:32.053Z,6.75
2023-01-17T11:37:35.321Z,6.91
2023-01-17T11:40:44.078Z,6.63
2023-01-17T11:43:51.980Z,6.81
2023-01-17T11:47:11.890Z,7.06
2023-01-17T11:50:27.197Z,7.13
2023-01-17T11:53:37.049Z,7.21
2023-01-17T11:56:40.679Z,7.25
2023-01-17T11:59:47.718Z,7.24
2023-01-17T12:03:03.891Z,7.34
2023-01-17T12:06:56.919Z,7.78
2023-01-17T12:10:04.972Z,7.33
2023-01-17T12:13:24.964Z,7.46
2023-01-17T12:16:44.862Z,7.01
2023-01-17T12:20:05.444Z,7.41
2023-01-17T12:23:36.376Z,7.33
2023-01-17T12:26:43.281Z,7.17
2023-01-17T12:29:58.881Z,7.33
2023-01-17T12:33:13.278Z,7.27
2023-01-17T12:36:18.009Z,7.20
2023-01-17T12:39:26.164Z,7.35
2023-01-17T12:42:32.925Z,7.53
2023-01-17T12:45:47.110Z,7.63
2023-01-17T12:48:54.408Z,7.47
2023-01-17T12:52:07.621Z,7.55
2023-01-17T12:55:17.729Z,7.40
2023-01-17T12:58:23.844Z,7.45
2023-01-17T13:01:30.900Z,7.39
2023-01-17T13:04:58.432Z,7.15
2023-01-17T13:08:25.069Z,7.48
2023-01-17T13:11:30.248Z,7.78
2023-01-17T13:14:32.948Z,7.13
2023-01-17T13:17:45.666Z,7.07
2023-01-17T13:21:11.473Z,7.18
2023-01-17T13:24:31.599Z,6.84
2023-01-17T13:27:40.227Z,6.81
2023-01-17T13:31:22.840Z,6.79
2023-01-17T13:34:30.593Z,6.85
2023-01-17T13:37:53.778Z,6.74
2023-01-17T13:41:04.452Z,6.59
2023-01-17T13:44:22.975Z,6.56
2023-01-17T13:47:43.296Z,6.64
2023-01-17T13:50:44.867Z,6.66
2023-01-17T13:53:47.242Z,6.35
2023-01-17T13:56:48.958Z,6.37
2023-01-17T13:59:50.789Z,6.64
2023-01-17T14:02:55.386Z,6.54
2023-01-17T14:05:57.338Z,6.63
2023-01-17T14:09:15.719Z,6.67
2023-01-17T14:12:20.124Z,6.91
2023-01-17T14:15:25.656Z,6.47
2023-01-17T14:18:30.422Z,6.20
2023-01-17T14:21:32.537Z,6.50
2023-01-17T14:24:34.259Z,6.14
2023-01-17T14:27:58.493Z,6.30
2023-01-17T14:31:03.024Z,6.47
2023-01-17T14:34:14.047Z,6.05
2023-01-17T14:37:19.761Z,5.95
2023-01-17T14:40:26.058Z,5.86
2023-01-17T14:43:32.994Z,5.79
2023-01-17T14:46:34.912Z,5.70
2023-01-17T14:49:36.630Z,5.79
2023-01-17T14:52:38.422Z,5.61
2023-01-17T14:55:49.171Z,5.48
2023-01-17T14:59:24.195Z,5.49
2023-01-17T15:02:26.077Z,5.67
2023-01-17T15:05:29.937Z,5.51
2023-01-17T15:08:35.480Z,5.64
2023-01-17T15:11:37.856Z,5.51
2023-01-17T15:14:46.576Z,5.37
2023-01-17T15:17:48.257Z,5.13
2023-01-17T15:21:02.547Z,5.10
2023-01-17T15:24:08.410Z,5.13
2023-01-17T15:27:15.308Z,5.09
2023-01-17T15:30:17.781Z,5.17
2023-01-17T15:33:21.123Z,4.91
2023-01-17T15:36:33.208Z,5.06
2023-01-17T15:39:38.043Z,4.94
2023-01-17T15:42:44.116Z,4.95
2023-01-17T15:45:55.638Z,5.01
2023-01-17T15:49:29.259Z,4.84
2023-01-17T15:52:31.050Z,4.85
2023-01-17T15:55:38.100Z,4.91
2023-01-17T15:58:39.726Z,4.88
2023-01-17T16:01:41.613Z,4.97
2023-01-17T16:04:43.413Z,4.89
2023-01-17T16:07:45.103Z,4.91
2023-01-17T16:10:46.784Z,4.79
2023-01-17T16:13:49.227Z,4.75
2023-01-17T16:16:54.331Z,4.75
2023-01-17T16:19:56.648Z,4.77
2023-01-17T16:23:00.334Z,4.79
2023-01-17T16:26:02.254Z,4.77
2023-01-17T16:29:04.133Z,4.75
2023-01-17T16:32:09.113Z,4.67
2023-01-17T16:35:19.163Z,4.71
2023-01-17T16:38:20.946Z,4.63
2023-01-17T16:41:22.780Z,4.68
2023-01-17T16:44:24.481Z,4.63
2023-01-17T16:47:26.143Z,4.54
2023-01-17T16:50:27.769Z,4.57
2023-01-17T16:53:29.528Z,4.47
2023-01-17T16:56:31.259Z,4.57
2023-01-17T16:59:49.619Z,4.47
2023-01-17T17:02:53.159Z,4.41
2023-01-17T17:05:57.151Z,4.44
2023-01-17T17:08:59.546Z,4.42
2023-01-17T17:12:01.521Z,4.41
2023-01-17T17:15:03.880Z,4.40
2023-01-17T17:18:05.692Z,4.33
2023-01-17T17:21:07.649Z,4.30
2023-01-17T17:24:13.112Z,4.36
2023-01-17T17:27:15.467Z,4.37
2023-01-17T17:30:18.392Z,4.34
2023-01-17T17:33:20.117Z,4.30
2023-01-17T17:36:22.267Z,4.41
2023-01-17T17:39:24.759Z,4.47
2023-01-17T17:42:26.881Z,4.36
2023-01-17T17:45:28.640Z,4.40
2023-01-17T17:48:30.542Z,4.33
2023-01-17T17:51:35.166Z,4.37
2023-01-17T17:54:37.441Z,4.45
2023-01-17T17:57:40.047Z,4.52
2023-01-17T18:00:42.118Z,4.59
2023-01-17T18:03:46.355Z,4.54
2023-01-17T18:06:49.047Z,4.37
2023-01-17T18:09:51.440Z,4.38
2023-01-17T18:12:53.704Z,4.34
2023-01-17T18:16:12.684Z,4.32
2023-01-17T18:19:20.966Z,4.38
2023-01-17T18:22:23.108Z,4.43
2023-01-17T18:25:25.736Z,4.47
2023-01-17T18:28:27.742Z,4.45
2023-01-17T18:31:31.517Z,4.49
2023-01-17T18:34:37.240Z,4.44
2023-01-17T18:37:39.978Z,4.52
2023-01-17T18:40:43.961Z,4.50
2023-01-17T18:43:48.105Z,4.49
2023-01-17T18:46:52.735Z,4.53
2023-01-17T18:49:58.335Z,4.54
2023-01-17T18:53:00.703Z,4.52
2023-01-17T18:56:06.551Z,4.53
2023-01-17T18:59:11.589Z,4.51
2023-01-17T19:02:15.031Z,4.53
2023-01-17T19:05:19.656Z,4.46
2023-01-17T19:08:23.582Z,4.48
2023-01-17T19:11:27.072Z,4.42
2023-01-17T19:14:29.315Z,4.41
2023-01-17T19:17:32.861Z,4.45
2023-01-17T19:20:36.399Z,4.48
2023-01-17T19:23:42.723Z,4.44
2023-01-17T19:26:45.661Z,4.42
2023-01-17T19:29:48.099Z,4.38
2023-01-17T19:32:52.307Z,4.44
2023-01-17T19:36:00.237Z,4.48
2023-01-17T19:39:06.205Z,4.57
2023-01-17T19:42:15.811Z,4.63
2023-01-17T19:45:18.638Z,4.57
2023-01-17T19:48:23.438Z,4.63
2023-01-17T19:51:30.340Z,4.64
2023-01-17T19:54:33.204Z,4.79
2023-01-17T19:57:37.275Z,4.78
2023-01-17T20:00:46.423Z,4.82
2023-01-17T20:03:50.959Z,4.86
2023-01-17T20:06:53.800Z,4.87
2023-01-17T20:09:56.681Z,4.96
2023-01-17T20:13:01.005Z,5.00
2023-01-17T20:16:05.694Z,5.01
2023-01-17T20:19:08.654Z,5.14
2023-01-17T20:22:12.262Z,5.30
2023-01-17T20:25:14.721Z,5.35
2023-01-17T20:28:17.281Z,5.38
2023-01-17T20:31:22.481Z,5.56
2023-01-17T20:34:26.404Z,5.52
2023-01-17T20:37:28.548Z,5.46
2023-01-17T20:40:31.205Z,5.50
2023-01-17T20:43:35.084Z,5.51
2023-01-17T20:46:44.002Z,5.46
2023-01-17T20:49:46.392Z,5.55
2023-01-17T20:52:58.925Z,5.57
2023-01-17T20:56:01.266Z,5.66
2023-01-17T20:59:07.608Z,5.71
2023-01-17T21:02:10.973Z,5.67
2023-01-17T21:05:14.677Z,5.71
2023-01-17T21:08:18.608Z,5.74
2023-01-17T21:11:23.434Z,5.72
2023-01-17T21:14:25.493Z,5.69
2023-01-17T21:17:27.267Z,5.73
2023-01-17T21:20:29.105Z,5.81
2023-01-17T21:23:30.856Z,5.81
2023-01-17T21:26:32.655Z,5.84
2023-01-17T21:29:34.344Z,5.85
2023-01-17T21:32:36.194Z,5.93
2023-01-17T21:35:37.888Z,5.98
2023-01-17T21:38:39.578Z,6.00
2023-01-17T21:41:43.025Z,6.02
2023-01-17T21:44:45.328Z,6.05
2023-01-17T21:47:48.008Z,6.08
2023-01-17T21:50:52.564Z,6.02
2023-01-17T21:53:54.607Z,6.05
2023-01-17T21:57:14.764Z,6.07
2023-01-17T22:00:17.124Z,6.21
2023-01-17T22:03:18.839Z,6.28
2023-01-17T22:06:21.966Z,6.31
2023-01-17T22:09:24.698Z,6.43
2023-01-17T22:12:26.433Z,6.47
2023-01-17T22:15:28.261Z,6.54
2023-01-17T22:18:31.037Z,6.53
2023-01-17T22:21:32.736Z,6.51
2023-01-17T22:24:34.549Z,6.56
2023-01-17T22:27:36.260Z,6.56
2023-01-17T22:30:38.212Z,6.59
2023-01-17T22:33:41.847Z,6.63
2023-01-17T22:36:45.176Z,6.62
2023-01-17T22:39:47.061Z,6.77
2023-01-17T22:42:48.808Z,6.85
2023-01-17T22:45:58.801Z,6.93
2023-01-17T22:49:00.566Z,7.03
2023-01-17T22:52:02.241Z,7.26
2023-01-17T22:55:04.601Z,7.31
2023-01-17T22:58:06.847Z,7.33
2023-01-17T23:01:13.834Z,7.24
2023-01-17T23:04:17.309Z,7.18
2023-01-17T23:07:19.065Z,7.16
2023-01-17T23:10:39.332Z,7.20
2023-01-17T23:13:41.150Z,7.14
2023-01-17T23:17:06.058Z,7.13
2023-01-17T23:20:09.664Z,7.13
2023-01-17T23:23:11.303Z,7.09
2023-01-17T23:26:13.019Z,7.02
2023-01-17T23:29:14.724Z,6.99
2023-01-17T23:32:16.467Z,6.89
2023-01-17T23:35:20.663Z,6.90
2023-01-17T23:38:31.261Z,6.89
2023-01-17T23:41:51.805Z,6.74
2023-01-17T23:44:53.892Z,6.67
2023-01-17T23:47:55.826Z,6.79
2023-01-17T23:51:00.258Z,6.88
2023-01-17T23:54:05.468Z,6.94
2023-01-17T23:57:07.247Z,6.99
